M I D A S
Marine Information and Data Acquisition System
Tripno 451 of the Zeeleeuw from 2003-03-27 07:26:41 to 2003-03-27 16:33:47
Back to CruiseResearch ActivitiesStationsMapUnderway DataData graphs

EquipmentUnitsComment
TimeDGPSUTC
LatitudeDGPSDM.mWGS84
LongitudeDGPSDM.mWGS84
HeadingGyrodeg 
SOGDGPSknotsSpeed over ground
COGDGPSdegCourse over ground
DepthEcho soundermeters200 kHz
Missing or incorrect values are displayed as -999
Navigation data collected by the RV Zeeleeuw from 2003-03-27 07:26:41 to 2003-03-27 16:33:47
                                                                                    Next 1000 lines
Time Latitude Longitude Heading SOG COG Depth
2003-03-27 07:26:49 51°13.601 2°56.105 127.4   195 10.1
2003-03-27 07:26:54 51°13.601 2°56.105 127.4   253 10.1
2003-03-27 07:26:58 51°13.6 2°56.105 127.4   228 10.1
2003-03-27 07:27:04 51°13.599 2°56.104 127.4 0.1 185 10.1
2003-03-27 07:27:09 51°13.599 2°56.104 127.4   136 10.1
2003-03-27 07:27:14 51°13.6 2°56.104 127.4   228 10.1
2003-03-27 07:27:18 51°13.6 2°56.105 127.4   193 10.1
2003-03-27 07:27:24 51°13.601 2°56.105 127.4   62 10.1
2003-03-27 07:27:29 51°13.601 2°56.105 127.4   22 10.1
2003-03-27 07:27:34 51°13.6 2°56.104 127.4   336 10.1
2003-03-27 07:27:38 51°13.599 2°56.104 127.4   254 10.1
2003-03-27 07:27:44 51°13.599 2°56.104 127   183 10
2003-03-27 07:27:49 51°13.599 2°56.105 126.2 0.1 181 10.1
2003-03-27 07:27:54 51°13.599 2°56.105 125.2 0.1 182 10
2003-03-27 07:27:59 51°13.599 2°56.104 124.1 0.1 174 10
2003-03-27 07:28:04 51°13.6 2°56.104 123 0.1 188 10.1
2003-03-27 07:28:09 51°13.6 2°56.105 122.2 0.1 212 10.1
2003-03-27 07:28:14 51°13.6 2°56.105 120.9 0.1 205 10.1
2003-03-27 07:28:18 51°13.6 2°56.105 119.8 0.1 187 10.2
2003-03-27 07:28:24 51°13.6 2°56.105 118.9 0.1 197 10.2
2003-03-27 07:28:29 51°13.6 2°56.104 117.8 0.1 198 10.2
2003-03-27 07:28:34 51°13.6 2°56.104 116.9 0.1 184 10.2
2003-03-27 07:28:38 51°13.599 2°56.103 116.2 0.1 198 10.2
2003-03-27 07:28:44 51°13.598 2°56.103 115.1 0.1 204 10.2
2003-03-27 07:28:49 51°13.598 2°56.103 114.3 0.2 210 10.2
2003-03-27 07:28:54 51°13.598 2°56.102 113.6 0.2 226 10.2
2003-03-27 07:28:58 51°13.598 2°56.102 113.2 0.2 248 10.2
2003-03-27 07:29:04 51°13.598 2°56.101 112.9 0.3 280 10.3
2003-03-27 07:29:09 51°13.599 2°56.1 112.8 0.6 285 10.3
2003-03-27 07:29:14 51°13.599 2°56.097 112.7 0.8 287 10.3
2003-03-27 07:29:18 51°13.6 2°56.096 113.1 1.1 289 10.4
2003-03-27 07:29:24 51°13.6 2°56.092 113.4 1.4 289 10.7
2003-03-27 07:29:30 51°13.601 2°56.088 113.8 1.7 291 -999
2003-03-27 07:29:34 51°13.602 2°56.084 114.1 1.9 292 -999
2003-03-27 07:29:40 51°13.604 2°56.079 114.2 2.2 293 -999
2003-03-27 07:29:45 51°13.605 2°56.073 114.1 2.4 293 -999
2003-03-27 07:29:50 51°13.607 2°56.068 114.1 2.6 293 -999
2003-03-27 07:29:54 51°13.608 2°56.064 114.1 2.7 293 -999
2003-03-27 07:30:00 51°13.61 2°56.056 113.9 2.9 293 -999
2003-03-27 07:30:05 51°13.611 2°56.049 113.4 3.2 293 -999
2003-03-27 07:30:10 51°13.614 2°56.042 113.1 3.4 293 -999
2003-03-27 07:30:14 51°13.615 2°56.036 112.9 3.7 291 -999
2003-03-27 07:30:20 51°13.617 2°56.026 112.8 3.9 290 -999
2003-03-27 07:30:25 51°13.618 2°56.017 112.7 4.2 288 -999
2003-03-27 07:30:30 51°13.619 2°56.007 113.2 4.3 288 -999
2003-03-27 07:30:34 51°13.62 2°56 114.4 4.4 288 -999
2003-03-27 07:30:40 51°13.623 2°55.989 115.4 4.4 289 -999
2003-03-27 07:30:45 51°13.625 2°55.98 116.2 4.5 289 -999
2003-03-27 07:30:50 51°13.628 2°55.97 117.5 4.6 290 -999
2003-03-27 07:30:54 51°13.629 2°55.962 118.4 4.6 290 5.1
2003-03-27 07:31:00 51°13.632 2°55.952 119.5 4.6 291 5
2003-03-27 07:31:05 51°13.635 2°55.942 120.7 4.6 293 5.6
2003-03-27 07:31:09 51°13.637 2°55.935 121.7 4.5 294 5.7
2003-03-27 07:31:14 51°13.641 2°55.927 122.9 4.5 295 5.3
2003-03-27 07:31:18 51°13.643 2°55.921 124.1 4.5 296 -999
2003-03-27 07:31:24 51°13.646 2°55.91 125.2 4.6 298 -999
2003-03-27 07:31:30 51°13.651 2°55.899 126.6 4.9 299 -999
2003-03-27 07:31:34 51°13.654 2°55.891 127.7 5.1 301 -999
2003-03-27 07:31:40 51°13.659 2°55.88 128.6 5.2 302 -999
2003-03-27 07:31:45 51°13.662 2°55.87 129.5 4.9 303 -999
2003-03-27 07:31:50 51°13.666 2°55.862 130.5 4.7 304 -999
2003-03-27 07:31:54 51°13.669 2°55.857 131.2 4.2 305 11.6
2003-03-27 07:31:59 51°13.672 2°55.851 131.5 3.9 306 11.6
2003-03-27 07:32:04 51°13.675 2°55.846 131.9 3.2 306 11.7
2003-03-27 07:32:09 51°13.677 2°55.842 131.8 2.7 305 11.8
2003-03-27 07:32:14 51°13.679 2°55.839 130.3 2.1 306 11.8
2003-03-27 07:32:18 51°13.679 2°55.836 128.4 1.7 304 11.9
2003-03-27 07:32:24 51°13.68 2°55.834 125.9 1.2 306 11.8
2003-03-27 07:32:29 51°13.68 2°55.833 122.9 0.7 304 12.1
2003-03-27 07:32:34 51°13.68 2°55.831 118.9 0.4 309 11.9
2003-03-27 07:32:39 51°13.68 2°55.83 116.1 0.1 327 11.9
2003-03-27 07:32:44 51°13.68 2°55.83 112.6 0.1 27 11.8
2003-03-27 07:32:49 51°13.681 2°55.83 110.3 0.1 14 11.9
2003-03-27 07:32:54 51°13.681 2°55.829 108.2 0.2 297 11.9
2003-03-27 07:33:00 51°13.681 2°55.827 106.1 0.6 286 11.9
2003-03-27 07:33:04 51°13.681 2°55.825 104.4 0.9 281 11.9
2003-03-27 07:33:09 51°13.682 2°55.822 102.9 1.2 279 11.9
2003-03-27 07:33:14 51°13.682 2°55.818 101.6 1.6 280 11.9
2003-03-27 07:33:20 51°13.683 2°55.812 100.4 1.9 282 -999
2003-03-27 07:33:24 51°13.684 2°55.809 99.2 2.2 280 -999
2003-03-27 07:33:30 51°13.684 2°55.802 97.9 2.4 279 -999
2003-03-27 07:33:34 51°13.685 2°55.798 96.4 2.6 277 -999
2003-03-27 07:33:40 51°13.686 2°55.791 94.8 2.6 276 5.1
2003-03-27 07:33:45 51°13.687 2°55.785 93.3 2.6 275 -999
2003-03-27 07:33:50 51°13.686 2°55.78 91.9 2.6 273 5.2
2003-03-27 07:33:54 51°13.686 2°55.775 90.7 2.6 271 -999
2003-03-27 07:33:59 51°13.686 2°55.77 89.7 2.6 270 5.3
2003-03-27 07:34:04 51°13.686 2°55.764 88.7 2.6 269 -999
2003-03-27 07:34:10 51°13.686 2°55.758 87.8 2.5 268 -999
2003-03-27 07:34:14 51°13.686 2°55.754 87 2.4 269 5.6
2003-03-27 07:34:20 51°13.687 2°55.749 86.3 2.2 270 13.7
2003-03-27 07:34:24 51°13.688 2°55.746 84.9 2 272 13.7
2003-03-27 07:34:28 51°13.688 2°55.743 82.8 1.5 273 13.7
2003-03-27 07:34:34 51°13.687 2°55.741 79.4 1.1 273 13.7
2003-03-27 07:34:39 51°13.687 2°55.74 75.1 0.7 273 13.7
2003-03-27 07:34:44 51°13.687 2°55.74 70.6 0.3 285 13.7
2003-03-27 07:34:48 51°13.687 2°55.74 66.7 0.2 321 13.8
2003-03-27 07:34:54 51°13.686 2°55.74 63.7 0.2 341 13.8
2003-03-27 07:34:58 51°13.686 2°55.74 60.9 0.3 356 13.8
2003-03-27 07:35:04 51°13.687 2°55.74 57.9 0.4 15 13.7
2003-03-27 07:35:09 51°13.688 2°55.74 54.8 0.4 21 13.7
2003-03-27 07:35:14 51°13.689 2°55.741 51.6 0.5 27 13.7
2003-03-27 07:35:18 51°13.69 2°55.742 48.4 0.7 28 13.7
2003-03-27 07:35:24 51°13.692 2°55.743 44.9 0.8 29 13.8
2003-03-27 07:35:29 51°13.693 2°55.743 41.2 0.9 26 13.7
2003-03-27 07:35:34 51°13.695 2°55.744 37.2 1.1 23 13.7
2003-03-27 07:35:38 51°13.696 2°55.745 32.9 1.2 21 13.7
2003-03-27 07:35:44 51°13.698 2°55.746 28.5 1.3 16 13.7
2003-03-27 07:35:49 51°13.7 2°55.747 24 1.4 13 13.7
2003-03-27 07:35:54 51°13.702 2°55.748 19.4 1.5 8 13.7
2003-03-27 07:35:58 51°13.703 2°55.748 14.8 1.6 5 13.6
2003-03-27 07:36:04 51°13.706 2°55.748 10.2 1.8 359 13.7
2003-03-27 07:36:09 51°13.709 2°55.748 5.3 1.9 357 13.7
2003-03-27 07:36:14 51°13.711 2°55.747 0.3 2 352 13.7
2003-03-27 07:36:18 51°13.713 2°55.746 355.5 2.1 348 13.6
2003-03-27 07:36:24 51°13.717 2°55.744 350.8 2.2 345 13.5
2003-03-27 07:36:28 51°13.72 2°55.743 346.6 2.4 341 13.1
2003-03-27 07:36:34 51°13.725 2°55.74 342.8 2.5 338 12.7
2003-03-27 07:36:39 51°13.728 2°55.738 339.5 2.6 336 12.5
2003-03-27 07:36:44 51°13.732 2°55.735 336.7 2.7 333 12.1
2003-03-27 07:36:48 51°13.735 2°55.732 334.3 2.9 331 12.1
2003-03-27 07:36:54 51°13.74 2°55.727 332.2 3.2 328 12.1
2003-03-27 07:36:58 51°13.743 2°55.724 330.9 3.4 327 12.1
2003-03-27 07:37:04 51°13.748 2°55.719 330.2 3.7 326 12
2003-03-27 07:37:09 51°13.752 2°55.714 329.7 4 326 12.1
2003-03-27 07:37:14 51°13.757 2°55.709 329.5 4.1 325 12
2003-03-27 07:37:19 51°13.762 2°55.703 329.5 4.2 325 12.1
2003-03-27 07:37:24 51°13.767 2°55.698 328.9 4.4 325 12.1
2003-03-27 07:37:29 51°13.772 2°55.692 328.6 4.6 325 12.3
2003-03-27 07:37:34 51°13.778 2°55.686 328.5 4.7 325 12.5
2003-03-27 07:37:38 51°13.783 2°55.681 328.7 4.9 325 12.6
2003-03-27 07:37:44 51°13.79 2°55.674 329.3 5.1 326 12.6
2003-03-27 07:37:48 51°13.795 2°55.669 330.1 5.1 326 12.5
2003-03-27 07:37:54 51°13.802 2°55.661 331.2 5.3 327 12.5
2003-03-27 07:37:58 51°13.807 2°55.656 332.4 5.4 328 12.5
2003-03-27 07:38:04 51°13.815 2°55.648 333.8 5.5 329 12.5
2003-03-27 07:38:09 51°13.821 2°55.642 335.8 5.5 329 12.5
2003-03-27 07:38:14 51°13.828 2°55.636 338.3 5.6 331 12.5
2003-03-27 07:38:18 51°13.834 2°55.632 340.8 5.7 333 12.5
2003-03-27 07:38:24 51°13.843 2°55.626 341.2 5.7 335 12.5
2003-03-27 07:38:30 51°13.852 2°55.62 341.6 5.8 336 12.5
2003-03-27 07:38:34 51°13.858 2°55.616 341.8 5.9 336 12.5
2003-03-27 07:38:38 51°13.864 2°55.611 342.3 5.9 336 12.5
2003-03-27 07:38:44 51°13.873 2°55.606 342.5 6 337 12.4
2003-03-27 07:38:49 51°13.881 2°55.601 342.6 6 337 12.4
2003-03-27 07:38:54 51°13.889 2°55.596 342.8 6.1 338 12.4
2003-03-27 07:38:58 51°13.896 2°55.592 343 6.1 338 12.4
2003-03-27 07:39:04 51°13.905 2°55.586 343.1 6.1 339 12.5
2003-03-27 07:39:09 51°13.912 2°55.581 342.7 6.1 339 12.4
2003-03-27 07:39:14 51°13.92 2°55.575 342.4 6.2 338 12.4
2003-03-27 07:39:18 51°13.927 2°55.571 342.2 6.2 338 12.4
2003-03-27 07:39:24 51°13.936 2°55.565 342.1 6.2 337 12.3
2003-03-27 07:39:29 51°13.944 2°55.56 342.1 6.2 337 12.3
2003-03-27 07:39:34 51°13.952 2°55.554 342.4 6.2 338 12.3
2003-03-27 07:39:38 51°13.959 2°55.55 342.7 6.2 338 12.3
2003-03-27 07:39:44 51°13.968 2°55.544 343.3 6.2 338 12.3
2003-03-27 07:39:49 51°13.976 2°55.539 344.2 6.2 339 12.3
2003-03-27 07:39:54 51°13.984 2°55.534 345.1 6.3 339 12.3
2003-03-27 07:39:59 51°13.992 2°55.529 345.6 6.3 340 12.3
2003-03-27 07:40:04 51°14.001 2°55.524 345.6 6.3 340 12.3
2003-03-27 07:40:08 51°14.007 2°55.521 344.7 6.2 339 12.3
2003-03-27 07:40:14 51°14.016 2°55.514 343.4 6.2 338 12.2
2003-03-27 07:40:18 51°14.022 2°55.51 342.1 6.2 338 12.3
2003-03-27 07:40:24 51°14.032 2°55.503 341.2 6.2 336 12.3
2003-03-27 07:40:29 51°14.04 2°55.497 340.2 6.3 335 12.3
2003-03-27 07:40:34 51°14.048 2°55.491 339.2 6.3 334 12.2
2003-03-27 07:40:38 51°14.054 2°55.486 338.4 6.2 333 12.1
2003-03-27 07:40:44 51°14.064 2°55.479 337.7 6.2 333 12.1
2003-03-27 07:40:49 51°14.071 2°55.472 337.1 6.2 332 12
2003-03-27 07:40:54 51°14.079 2°55.466 336.6 6.2 332 11.9
2003-03-27 07:40:58 51°14.085 2°55.46 336.3 6.2 331 11.9
2003-03-27 07:41:04 51°14.094 2°55.452 336.7 6.3 331 12.3
2003-03-27 07:41:09 51°14.102 2°55.445 337 6.3 331 12.3
2003-03-27 07:41:14 51°14.109 2°55.439 337.1 6.3 331 12.3
2003-03-27 07:41:18 51°14.115 2°55.434 337 6.2 332 12.3
2003-03-27 07:41:24 51°14.124 2°55.425 336.9 6.3 332 12.3
2003-03-27 07:41:29 51°14.132 2°55.419 337.2 6.3 331 12.4
2003-03-27 07:41:34 51°14.139 2°55.412 337.3 6.3 332 12.4
2003-03-27 07:41:38 51°14.145 2°55.407 337.3 6.3 331 12.4
2003-03-27 07:41:44 51°14.154 2°55.399 337.4 6.3 332 12.5
2003-03-27 07:41:49 51°14.162 2°55.392 337.2 6.3 332 12.5
2003-03-27 07:41:54 51°14.169 2°55.386 336.5 6.3 331 12.5
2003-03-27 07:41:58 51°14.176 2°55.38 335.3 6.3 331 12.5
2003-03-27 07:42:04 51°14.185 2°55.371 333.6 6.3 329 12.5
2003-03-27 07:42:09 51°14.193 2°55.363 332.5 6.3 328 12.5
2003-03-27 07:42:14 51°14.2 2°55.356 330.9 6.3 326 12.5
2003-03-27 07:42:18 51°14.205 2°55.349 329.4 6.2 325 12.6
2003-03-27 07:42:24 51°14.213 2°55.339 326.9 6.2 323 12.6
2003-03-27 07:42:29 51°14.22 2°55.329 324.7 6.2 320 12.3
2003-03-27 07:42:34 51°14.226 2°55.32 322.3 6.3 318 12.4
2003-03-27 07:42:38 51°14.231 2°55.312 319.7 6.2 316 12.6
2003-03-27 07:42:44 51°14.238 2°55.3 317.5 6.2 314 12.5
2003-03-27 07:42:49 51°14.244 2°55.29 315.9 6.1 311 12.6
2003-03-27 07:42:54 51°14.25 2°55.279 314.6 6.2 310 12.6
2003-03-27 07:42:58 51°14.254 2°55.27 313.6 6.3 310 12.6
2003-03-27 07:43:04 51°14.261 2°55.255 313.4 6.3 309 12.6
2003-03-27 07:43:09 51°14.267 2°55.244 313 6.2 308 12.6
2003-03-27 07:43:14 51°14.273 2°55.233 312.3 6.2 308 12.6
2003-03-27 07:43:19 51°14.279 2°55.221 312.1 6.3 307 12.6
2003-03-27 07:43:24 51°14.284 2°55.21 312.5 6.3 307 12.6
2003-03-27 07:43:29 51°14.29 2°55.199 313.4 6.3 308 12.6
2003-03-27 07:43:34 51°14.296 2°55.188 314.4 6.3 309 12.6
2003-03-27 07:43:38 51°14.3 2°55.18 315 6.3 309 12.7
2003-03-27 07:43:44 51°14.307 2°55.167 315.3 6.3 310 12.7
2003-03-27 07:43:49 51°14.313 2°55.156 314.8 6.3 309 12.7
2003-03-27 07:43:54 51°14.318 2°55.145 313 6.3 308 12.7
2003-03-27 07:43:58 51°14.322 2°55.136 312 6.4 307 12.7
2003-03-27 07:44:04 51°14.328 2°55.123 311.3 6.4 306 12.8
2003-03-27 07:44:09 51°14.333 2°55.113 310.9 6.3 306 12.6
2003-03-27 07:44:14 51°14.337 2°55.103 310.3 6.3 305 12.3
2003-03-27 07:44:18 51°14.341 2°55.094 309.9 6.3 305 12.6
2003-03-27 07:44:24 51°14.347 2°55.08 309.6 6.3 304 12.8
2003-03-27 07:44:28 51°14.35 2°55.071 309.9 6.3 304 13
2003-03-27 07:44:34 51°14.357 2°55.058 310.4 6.4 305 13
2003-03-27 07:44:38 51°14.361 2°55.049 310.6 6.4 306 13
2003-03-27 07:44:44 51°14.367 2°55.035 311.3 6.3 307 12.8
2003-03-27 07:44:49 51°14.373 2°55.025 312.1 6.3 309 12.8
2003-03-27 07:44:54 51°14.379 2°55.014 314.2 6.3 311 12.9
2003-03-27 07:44:59 51°14.385 2°55.004 315.4 6.3 313 12.9
2003-03-27 07:45:04 51°14.392 2°54.994 316.7 6.3 316 13.1
2003-03-27 07:45:09 51°14.398 2°54.985 317.3 6.3 318 13.2
2003-03-27 07:45:14 51°14.405 2°54.976 317.4 6.4 318 13.3
2003-03-27 07:45:18 51°14.411 2°54.968 315.3 6.6 318 13.4
2003-03-27 07:45:24 51°14.419 2°54.953 312.8 7.1 316 13
2003-03-27 07:45:29 51°14.427 2°54.94 311.7 7.7 313 13.2
2003-03-27 07:45:34 51°14.434 2°54.926 309.5 8 311 13.2
2003-03-27 07:45:38 51°14.439 2°54.914 306 8.2 309 13.1
2003-03-27 07:45:44 51°14.447 2°54.895 304.1 8.6 306 13
2003-03-27 07:45:49 51°14.454 2°54.879 303.3 8.8 304 12.6
2003-03-27 07:45:54 51°14.46 2°54.861 301.9 9 303 12.8
2003-03-27 07:45:58 51°14.466 2°54.847 300.6 9.2 301 12.8
2003-03-27 07:46:04 51°14.474 2°54.825 299.4 9.3 300 12.8
2003-03-27 07:46:09 51°14.481 2°54.807 298.6 9.4 298 12.8
2003-03-27 07:46:14 51°14.487 2°54.788 298.5 9.5 298 13.1
2003-03-27 07:46:18 51°14.492 2°54.773 298.9 9.7 298 13.1
2003-03-27 07:46:24 51°14.5 2°54.75 299.3 9.7 298 13.1
2003-03-27 07:46:29 51°14.507 2°54.73 299.6 9.8 299 13.2
2003-03-27 07:46:34 51°14.514 2°54.711 299.4 9.9 299 12.8
2003-03-27 07:46:39 51°14.52 2°54.692 299.1 10 299 13
2003-03-27 07:46:44 51°14.527 2°54.672 299.1 10 298 12.7
2003-03-27 07:46:49 51°14.534 2°54.652 299 10 298 12.7
2003-03-27 07:46:54 51°14.541 2°54.632 298.8 10 298 12.6
2003-03-27 07:46:58 51°14.546 2°54.616 298.7 10.1 298 12.7
2003-03-27 07:47:04 51°14.554 2°54.589 298.5 10.1 298 12.7
2003-03-27 07:47:09 51°14.56 2°54.567 298.7 10.1 298 12.6
2003-03-27 07:47:14 51°14.566 2°54.547 299 10.2 298 12.6
2003-03-27 07:47:19 51°14.574 2°54.528 299.1 10.2 298 12.5
2003-03-27 07:47:24 51°14.581 2°54.51 299 10.2 298 12.6
2003-03-27 07:47:29 51°14.588 2°54.491 299 10.2 298 12.6
2003-03-27 07:47:34 51°14.595 2°54.471 299 10.2 298 12.6
2003-03-27 07:47:38 51°14.6 2°54.456 298.8 10.2 298 12.6
2003-03-27 07:47:44 51°14.608 2°54.433 298.9 10.2 298 12.7
2003-03-27 07:47:48 51°14.613 2°54.418 299 10.3 298 12.7
2003-03-27 07:47:54 51°14.621 2°54.395 298.9 10.3 298 12.7
2003-03-27 07:47:58 51°14.627 2°54.379 299 10.3 298 12.8
2003-03-27 07:48:04 51°14.635 2°54.356 298.8 10.3 298 12.7
2003-03-27 07:48:08 51°14.64 2°54.34 298.9 10.3 298 12.8
2003-03-27 07:48:14 51°14.649 2°54.316 299 10.3 298 12.8
2003-03-27 07:48:18 51°14.654 2°54.3 299.2 10.3 299 12.8
2003-03-27 07:48:24 51°14.662 2°54.276 299.2 10.3 299 12.9
2003-03-27 07:48:28 51°14.668 2°54.26 299 10.4 298 12.8
2003-03-27 07:48:34 51°14.677 2°54.236 298.8 10.5 298 12.7
2003-03-27 07:48:38 51°14.682 2°54.219 298.8 10.7 298 12.7
2003-03-27 07:48:44 51°14.691 2°54.192 299 11 298 12.7
2003-03-27 07:48:49 51°14.698 2°54.17 299 11.2 298 12.7
2003-03-27 07:48:54 51°14.706 2°54.148 298.9 11.3 298 12.7
2003-03-27 07:48:58 51°14.712 2°54.13 299.1 11.5 298 12.6
2003-03-27 07:49:04 51°14.72 2°54.103 299.2 11.6 298 12.6
2003-03-27 07:49:09 51°14.728 2°54.08 299.1 11.7 298 12.6
2003-03-27 07:49:14 51°14.736 2°54.057 299 11.7 298 12.5
2003-03-27 07:49:18 51°14.742 2°54.039 299 11.8 298 12.4
2003-03-27 07:49:24 51°14.752 2°54.011 299 11.8 298 12.4
2003-03-27 07:49:29 51°14.76 2°53.987 298.7 11.9 298 12.4
2003-03-27 07:49:34 51°14.767 2°53.964 298.6 11.8 297 12.3
2003-03-27 07:49:38 51°14.773 2°53.946 299 11.8 297 12.4
2003-03-27 07:49:44 51°14.783 2°53.918 299 11.9 298 12.3
2003-03-27 07:49:49 51°14.79 2°53.894 298.9 11.9 297 12.2
2003-03-27 07:49:54 51°14.797 2°53.871 298.7 11.9 297 12.4
2003-03-27 07:49:58 51°14.803 2°53.853 298.7 11.9 297 12.4
2003-03-27 07:50:04 51°14.811 2°53.825 299 11.9 297 12.4
2003-03-27 07:50:09 51°14.819 2°53.802 299.2 11.9 298 12.3
2003-03-27 07:50:14 51°14.826 2°53.779 299.2 12 298 12.2
2003-03-27 07:50:18 51°14.832 2°53.76 299 12 297 12.3
2003-03-27 07:50:24 51°14.841 2°53.732 298.9 12 297 12.2
2003-03-27 07:50:29 51°14.849 2°53.708 298.9 11.9 297 12.5
2003-03-27 07:50:34 51°14.857 2°53.685 298.9 11.9 297 12.3
2003-03-27 07:50:38 51°14.863 2°53.666 299 11.9 297 12.3
2003-03-27 07:50:44 51°14.872 2°53.637 298.9 11.9 297 12.3
2003-03-27 07:50:49 51°14.879 2°53.614 298.9 11.9 297 12.3
2003-03-27 07:50:54 51°14.887 2°53.59 299 11.9 297 12.4
2003-03-27 07:50:58 51°14.893 2°53.571 299.2 11.9 297 12.4
2003-03-27 07:51:04 51°14.902 2°53.543 299.2 11.9 297 12.5
2003-03-27 07:51:09 51°14.909 2°53.52 299.1 11.9 297 12.5
2003-03-27 07:51:14 51°14.917 2°53.496 299.1 11.9 297 12.5
2003-03-27 07:51:18 51°14.923 2°53.478 299.1 11.9 297 12.5
2003-03-27 07:51:24 51°14.932 2°53.45 299.2 11.9 297 12.6
2003-03-27 07:51:29 51°14.94 2°53.426 299.2 11.9 297 12.6
2003-03-27 07:51:34 51°14.947 2°53.403 299.2 11.9 297 12.6
2003-03-27 07:51:39 51°14.955 2°53.38 299.1 11.8 297 12.6
2003-03-27 07:51:44 51°14.962 2°53.356 299 11.9 297 12.7
2003-03-27 07:51:49 51°14.97 2°53.333 298.8 11.9 297 12.7
2003-03-27 07:51:54 51°14.977 2°53.31 298.9 11.8 297 12.6
2003-03-27 07:51:58 51°14.983 2°53.291 299 11.8 297 12.6
2003-03-27 07:52:04 51°14.992 2°53.262 299.1 11.8 297 12.6
2003-03-27 07:52:08 51°14.998 2°53.244 299.1 11.8 297 12.7
2003-03-27 07:52:14 51°15.007 2°53.216 299 11.8 297 12.6
2003-03-27 07:52:18 51°15.013 2°53.197 299.1 11.8 297 12.6
2003-03-27 07:52:24 51°15.022 2°53.169 299.3 11.8 297 12.6
2003-03-27 07:52:29 51°15.03 2°53.145 299.7 11.8 297 12.8
2003-03-27 07:52:34 51°15.037 2°53.122 299.5 11.8 297 12.8
2003-03-27 07:52:38 51°15.043 2°53.103 299.3 11.8 297 12.8
2003-03-27 07:52:44 51°15.052 2°53.075 299.1 11.9 297 12.7
2003-03-27 07:52:49 51°15.059 2°53.051 299 11.9 297 12.8
2003-03-27 07:52:54 51°15.067 2°53.028 299 11.8 297 12.9
2003-03-27 07:52:58 51°15.073 2°53.009 299 11.8 297 12.8
2003-03-27 07:53:04 51°15.082 2°52.981 299.1 11.8 297 12.8
2003-03-27 07:53:08 51°15.088 2°52.962 299.2 11.9 297 12.9
2003-03-27 07:53:14 51°15.097 2°52.934 299 11.9 297 13
2003-03-27 07:53:18 51°15.103 2°52.915 299 11.9 297 13.1
2003-03-27 07:53:24 51°15.112 2°52.887 298.9 11.9 297 13.1
2003-03-27 07:53:29 51°15.119 2°52.865 299.2 11.9 297 13
2003-03-27 07:53:34 51°15.127 2°52.843 299.5 11.8 297 13.1
2003-03-27 07:53:38 51°15.133 2°52.825 299.5 11.8 297 13.2
2003-03-27 07:53:44 51°15.142 2°52.797 299.2 11.9 297 13.3
2003-03-27 07:53:48 51°15.148 2°52.776 298.8 11.9 297 13.4
2003-03-27 07:53:54 51°15.157 2°52.745 298.5 11.9 297 13.4
2003-03-27 07:53:58 51°15.162 2°52.724 298.3 11.8 296 13.4
2003-03-27 07:54:04 51°15.171 2°52.695 298.5 11.8 297 13.4
2003-03-27 07:54:09 51°15.178 2°52.671 298.4 11.8 297 13.6
2003-03-27 07:54:14 51°15.185 2°52.647 298.4 11.8 297 13.7
2003-03-27 07:54:18 51°15.191 2°52.629 298.6 11.8 297 13.7
2003-03-27 07:54:24 51°15.2 2°52.601 298.7 11.8 297 13.8
2003-03-27 07:54:28 51°15.206 2°52.582 298.7 11.8 297 13.8
2003-03-27 07:54:34 51°15.215 2°52.554 298.3 11.8 297 13.8
2003-03-27 07:54:39 51°15.223 2°52.531 298.3 11.8 296 13.8
2003-03-27 07:54:44 51°15.231 2°52.507 298.3 11.8 296 13.9
2003-03-27 07:54:49 51°15.238 2°52.484 298.4 11.8 296 13.9
2003-03-27 07:54:54 51°15.246 2°52.461 298.4 11.8 297 13.9
2003-03-27 07:54:58 51°15.252 2°52.442 298.4 11.8 296 14
2003-03-27 07:55:04 51°15.261 2°52.415 298.3 11.8 296 14.1
2003-03-27 07:55:09 51°15.268 2°52.393 298.2 11.8 296 14.1
2003-03-27 07:55:14 51°15.275 2°52.37 298 11.8 296 14.1
2003-03-27 07:55:18 51°15.281 2°52.352 298 11.8 296 14.1
2003-03-27 07:55:24 51°15.29 2°52.323 298.2 11.8 296 14.2
2003-03-27 07:55:29 51°15.297 2°52.3 298.5 11.8 296 14.3
2003-03-27 07:55:34 51°15.304 2°52.276 298.5 11.8 296 14.3
2003-03-27 07:55:38 51°15.31 2°52.257 298.3 11.8 296 14.3
2003-03-27 07:55:44 51°15.319 2°52.229 298.3 11.8 296 14.4
2003-03-27 07:55:49 51°15.326 2°52.205 298.2 11.8 296 14.4
2003-03-27 07:55:54 51°15.334 2°52.182 298.2 11.8 296 14.4
2003-03-27 07:55:59 51°15.341 2°52.158 299.7 11.8 297 14.5
2003-03-27 07:56:04 51°15.35 2°52.136 301.3 11.9 298 14.5
2003-03-27 07:56:09 51°15.358 2°52.113 302.3 11.9 300 14.6
2003-03-27 07:56:14 51°15.366 2°52.091 303.1 11.9 301 14.7
2003-03-27 07:56:18 51°15.373 2°52.074 304.2 11.9 301 14.7
2003-03-27 07:56:24 51°15.384 2°52.047 304.6 11.9 302 14.7
2003-03-27 07:56:28 51°15.391 2°52.029 305.5 12 303 14.6
2003-03-27 07:56:34 51°15.403 2°52.002 305.6 12.2 304 14.7
2003-03-27 07:56:38 51°15.41 2°51.984 305.8 12.3 304 14.8
2003-03-27 07:56:44 51°15.421 2°51.956 305.6 12.5 303 14.8
2003-03-27 07:56:49 51°15.431 2°51.933 305.6 12.5 303 14.8
2003-03-27 07:56:54 51°15.441 2°51.909 305.5 12.6 303 14.8
2003-03-27 07:56:59 51°15.45 2°51.886 305.4 12.7 303 14.9
2003-03-27 07:57:04 51°15.46 2°51.862 305.4 12.7 303 14.9
2003-03-27 07:57:09 51°15.469 2°51.839 305.6 12.8 303 15
2003-03-27 07:57:14 51°15.479 2°51.815 305.7 12.8 303 15
2003-03-27 07:57:18 51°15.487 2°51.795 305.6 12.9 303 15
2003-03-27 07:57:24 51°15.499 2°51.767 305.5 12.9 303 15.1
2003-03-27 07:57:29 51°15.508 2°51.743 305.4 13 303 15.2
2003-03-27 07:57:34 51°15.518 2°51.719 305.6 13 303 15.1
2003-03-27 07:57:38 51°15.526 2°51.7 305.7 13 303 15.2
2003-03-27 07:57:44 51°15.539 2°51.671 305.5 13 304 15.3
2003-03-27 07:57:49 51°15.549 2°51.647 306.8 13 304 15.3
2003-03-27 07:57:54 51°15.559 2°51.624 307.6 13 305 15.4
2003-03-27 07:57:58 51°15.568 2°51.605 308.4 13 305 15.4
2003-03-27 07:58:04 51°15.581 2°51.578 309.1 13 307 15.4
2003-03-27 07:58:09 51°15.592 2°51.555 309.1 13 307 15.4
2003-03-27 07:58:14 51°15.603 2°51.533 309.7 13 307 15.5
2003-03-27 07:58:18 51°15.612 2°51.514 309.7 13 308 15.5
2003-03-27 07:58:24 51°15.625 2°51.487 309.7 13 307 15.5
2003-03-27 07:58:29 51°15.636 2°51.464 309.6 13 308 15.5
2003-03-27 07:58:34 51°15.647 2°51.441 309.6 13 307 15.5
2003-03-27 07:58:38 51°15.656 2°51.423 309.9 13 308 15.5
2003-03-27 07:58:44 51°15.668 2°51.395 309.9 13.1 308 15.6
2003-03-27 07:58:49 51°15.679 2°51.373 309.9 13.1 308 15.6
2003-03-27 07:58:54 51°15.69 2°51.35 309.8 13.1 308 15.6
2003-03-27 07:58:58 51°15.699 2°51.332 309.6 13 308 15.6
2003-03-27 07:59:04 51°15.713 2°51.305 309.9 13.1 308 15.6
2003-03-27 07:59:09 51°15.724 2°51.282 310 13.1 308 15.7
2003-03-27 07:59:14 51°15.735 2°51.26 309.7 13.1 308 15.7
2003-03-27 07:59:18 51°15.743 2°51.241 309.6 13.1 308 15.7
2003-03-27 07:59:24 51°15.756 2°51.214 309.6 13.1 308 15.7
2003-03-27 07:59:29 51°15.767 2°51.192 309.6 13.1 308 15.6
2003-03-27 07:59:34 51°15.778 2°51.169 309.4 13.1 307 15.6
2003-03-27 07:59:38 51°15.787 2°51.15 309.5 13.1 307 15.7
2003-03-27 07:59:44 51°15.801 2°51.123 309.8 13.1 308 15.6
2003-03-27 07:59:48 51°15.81 2°51.105 309.7 13.1 308 15.6
2003-03-27 07:59:54 51°15.823 2°51.078 309.8 13.1 308 15.6
2003-03-27 07:59:58 51°15.833 2°51.06 310.4 13.1 308 15.6
2003-03-27 08:00:04 51°15.846 2°51.033 310.4 13.1 308 15.6
2003-03-27 08:00:08 51°15.855 2°51.015 310.7 13.1 309 15.6
2003-03-27 08:00:14 51°15.869 2°50.988 310.9 13.1 309 15.6
2003-03-27 08:00:18 51°15.878 2°50.97 311 13.1 309 15.6
2003-03-27 08:00:24 51°15.892 2°50.943 310.8 13.1 309 15.6
2003-03-27 08:00:29 51°15.903 2°50.92 310.7 13.1 309 15.6
2003-03-27 08:00:34 51°15.914 2°50.898 310.6 13.1 309 15.6
2003-03-27 08:00:39 51°15.926 2°50.875 310.6 13.1 309 15.6
2003-03-27 08:00:44 51°15.937 2°50.853 310.4 13.1 309 15.6
2003-03-27 08:00:49 51°15.948 2°50.83 310.3 13.1 309 15.5
2003-03-27 08:00:54 51°15.959 2°50.808 310.6 13.1 309 15.4
2003-03-27 08:00:58 51°15.969 2°50.79 310.6 13.1 309 15.3
2003-03-27 08:01:04 51°15.982 2°50.763 310.5 13.1 309 15.2
2003-03-27 08:01:09 51°15.993 2°50.74 310.5 13 309 15
2003-03-27 08:01:14 51°16.005 2°50.718 310.4 13 309 14.8
2003-03-27 08:01:18 51°16.014 2°50.7 310.4 13 308 14.6
2003-03-27 08:01:24 51°16.027 2°50.673 310.4 13 308 14.3
2003-03-27 08:01:28 51°16.036 2°50.655 310.5 13 308 14
2003-03-27 08:01:34 51°16.05 2°50.628 310.2 13 308 13.8
2003-03-27 08:01:38 51°16.059 2°50.61 310.3 12.9 308 13.5
2003-03-27 08:01:44 51°16.072 2°50.583 310.4 12.9 308 13.2
2003-03-27 08:01:49 51°16.083 2°50.561 310.6 12.9 309 12.9
2003-03-27 08:01:54 51°16.094 2°50.539 310.5 12.9 309 12.6
2003-03-27 08:01:58 51°16.103 2°50.521 310.3 12.9 309 12.4
2003-03-27 08:02:04 51°16.116 2°50.494 310.6 12.9 309 12.2
2003-03-27 08:02:08 51°16.125 2°50.476 310.8 12.9 309 12.2
2003-03-27 08:02:14 51°16.139 2°50.45 310.7 12.9 309 12.1
2003-03-27 08:02:18 51°16.148 2°50.432 310.7 12.9 309 12.2
2003-03-27 08:02:24 51°16.161 2°50.405 310.6 12.9 309 12.1
2003-03-27 08:02:29 51°16.172 2°50.383 310.3 12.9 309 12.3
2003-03-27 08:02:34 51°16.183 2°50.36 310.2 13 308 12.3
2003-03-27 08:02:38 51°16.192 2°50.342 310.2 13 308 12.3
2003-03-27 08:02:44 51°16.205 2°50.315 310.3 13 308 12.4
2003-03-27 08:02:48 51°16.214 2°50.297 310.5 13 308 12.6
2003-03-27 08:02:54 51°16.228 2°50.27 310.6 13 309 12.8
2003-03-27 08:03:00 51°16.241 2°50.243 310.7 13 309 12.9
2003-03-27 08:03:04 51°16.25 2°50.225 310.6 13 309 13
2003-03-27 08:03:09 51°16.262 2°50.203 310.6 13 309 13.1
2003-03-27 08:03:14 51°16.273 2°50.181 310.6 13 309 13.4
2003-03-27 08:03:18 51°16.282 2°50.163 310.4 12.9 308 13.4
2003-03-27 08:03:24 51°16.295 2°50.136 310.4 12.9 308 13.2
2003-03-27 08:03:30 51°16.308 2°50.109 310.4 12.9 308 13.4
2003-03-27 08:03:34 51°16.317 2°50.091 310.3 12.9 308 13.3
2003-03-27 08:03:40 51°16.331 2°50.064 310.6 12.9 309 13.4
2003-03-27 08:03:44 51°16.34 2°50.046 310.5 12.9 308 13.4
2003-03-27 08:03:49 51°16.351 2°50.024 310.3 12.9 308 13.5
2003-03-27 08:03:54 51°16.362 2°50.001 310.3 13 308 13.4
2003-03-27 08:03:59 51°16.374 2°49.98 310.8 12.9 309 13.6
2003-03-27 08:04:04 51°16.385 2°49.958 311.6 12.9 309 13.6
2003-03-27 08:04:09 51°16.397 2°49.937 312.9 12.9 311 13.6
2003-03-27 08:04:14 51°16.409 2°49.915 313.7 12.9 312 13.7
2003-03-27 08:04:18 51°16.419 2°49.899 314.3 12.9 313 13.8
2003-03-27 08:04:24 51°16.433 2°49.874 315 12.9 313 13.8
2003-03-27 08:04:29 51°16.446 2°49.853 315.3 13 314 14
2003-03-27 08:04:34 51°16.458 2°49.833 315.7 13 314 14.2
2003-03-27 08:04:39 51°16.471 2°49.812 316 13 315 14.3
2003-03-27 08:04:44 51°16.484 2°49.792 316.1 13 315 14.5
2003-03-27 08:04:49 51°16.496 2°49.771 316.3 13 315 14.8
2003-03-27 08:04:54 51°16.509 2°49.751 316 13 315 15.1
2003-03-27 08:04:58 51°16.519 2°49.734 315.8 13 314 15.4
2003-03-27 08:05:04 51°16.534 2°49.71 316 13 314 15.8
2003-03-27 08:05:10 51°16.55 2°49.685 315.8 13 314 16.3
2003-03-27 08:05:14 51°16.56 2°49.669 315.7 13 314 16.7
2003-03-27 08:05:18 51°16.57 2°49.652 315.9 13 315 16.9
2003-03-27 08:05:24 51°16.585 2°49.627 315.9 13 314 17.2
2003-03-27 08:05:29 51°16.598 2°49.607 315.7 13 314 17.4
2003-03-27 08:05:34 51°16.611 2°49.586 315.5 13 314 17.4
2003-03-27 08:05:39 51°16.623 2°49.565 315.4 13.1 314 17.2
2003-03-27 08:05:44 51°16.636 2°49.544 315.7 13.1 314 16.5
2003-03-27 08:05:48 51°16.646 2°49.528 315.8 13.2 314 15.7
2003-03-27 08:05:54 51°16.661 2°49.503 315.8 13.2 314 14.9
2003-03-27 08:05:58 51°16.671 2°49.486 315.9 13.2 315 14.5
2003-03-27 08:06:04 51°16.687 2°49.461 315.9 13.2 315 14.3
2003-03-27 08:06:09 51°16.699 2°49.441 315.9 13.2 315 13.8
2003-03-27 08:06:14 51°16.712 2°49.42 315.7 13.2 315 13
2003-03-27 08:06:18 51°16.723 2°49.403 315.7 13.3 314 12.6
2003-03-27 08:06:24 51°16.738 2°49.378 315.4 13.3 314 12.2
2003-03-27 08:06:29 51°16.751 2°49.357 315.1 13.2 314 12.1
2003-03-27 08:06:34 51°16.764 2°49.336 315.6 13.2 314 11.7
2003-03-27 08:06:38 51°16.774 2°49.319 315.6 13.2 314 11.2
2003-03-27 08:06:45 51°16.792 2°49.29 315.7 13.2 314 11.6
2003-03-27 08:06:50 51°16.804 2°49.269 315.4 13.2 314 11.8
2003-03-27 08:06:54 51°16.815 2°49.251 315.4 13.3 314 12
2003-03-27 08:06:58 51°16.825 2°49.235 315.3 13.3 314 12
2003-03-27 08:07:04 51°16.84 2°49.209 315.1 13.3 314 11.9
2003-03-27 08:07:09 51°16.853 2°49.187 315.4 13.4 314 12.5
2003-03-27 08:07:14 51°16.866 2°49.166 315.7 13.4 314 12.7
2003-03-27 08:07:19 51°16.879 2°49.145 315.7 13.4 314 12.8
2003-03-27 08:07:24 51°16.891 2°49.123 315.4 13.4 313 12.9
2003-03-27 08:07:28 51°16.902 2°49.106 315.2 13.4 313 13
2003-03-27 08:07:34 51°16.917 2°49.08 315 13.4 313 12.9
2003-03-27 08:07:38 51°16.927 2°49.063 315.4 13.4 313 13.1
2003-03-27 08:07:44 51°16.942 2°49.037 315.7 13.4 313 13.2
2003-03-27 08:07:49 51°16.955 2°49.015 315.3 13.4 313 13.3
2003-03-27 08:07:54 51°16.968 2°48.993 315.1 13.4 313 13.6
2003-03-27 08:07:58 51°16.978 2°48.976 315.5 13.4 313 13.6
2003-03-27 08:08:04 51°16.993 2°48.95 315.7 13.5 313 13.9
2003-03-27 08:08:09 51°17.006 2°48.928 315.4 13.5 313 14
2003-03-27 08:08:14 51°17.019 2°48.906 315.4 13.5 313 14.1
2003-03-27 08:08:20 51°17.034 2°48.88 315.5 13.5 313 14.1
2003-03-27 08:08:24 51°17.044 2°48.863 315.3 13.4 313 14
2003-03-27 08:08:29 51°17.057 2°48.841 315.7 13.5 314 13.9
2003-03-27 08:08:34 51°17.07 2°48.821 317.1 13.5 315 13.7
2003-03-27 08:08:38 51°17.081 2°48.804 317.2 13.5 315 13.5
2003-03-27 08:08:44 51°17.097 2°48.779 317.9 13.5 316 13.4
2003-03-27 08:08:50 51°17.114 2°48.755 318.3 13.5 316 13.4
2003-03-27 08:08:54 51°17.125 2°48.739 318.7 13.5 317 13.3
2003-03-27 08:08:59 51°17.138 2°48.719 318.9 13.5 317 13.4
2003-03-27 08:09:04 51°17.152 2°48.699 318.9 13.5 317 13.3
2003-03-27 08:09:09 51°17.166 2°48.678 318.8 13.5 317 13.4
2003-03-27 08:09:14 51°17.179 2°48.658 318.6 13.5 317 13.3
2003-03-27 08:09:18 51°17.19 2°48.642 318.4 13.5 317 13.3
2003-03-27 08:09:24 51°17.206 2°48.618 318.7 13.5 317 13.1
2003-03-27 08:09:29 51°17.22 2°48.597 318.5 13.4 317 13.1
2003-03-27 08:09:34 51°17.234 2°48.577 318.5 13.4 317 13.1
2003-03-27 08:09:40 51°17.25 2°48.552 318.1 13.4 316 12.9
2003-03-27 08:09:44 51°17.261 2°48.536 318.3 13.4 317 12.6
2003-03-27 08:09:48 51°17.271 2°48.52 318.6 13.4 317 11.9
2003-03-27 08:09:54 51°17.288 2°48.496 318.5 13.4 317 11.4
2003-03-27 08:09:58 51°17.298 2°48.48 318.4 13.4 317 11.6
2003-03-27 08:10:04 51°17.314 2°48.456 318.4 13.3 317 11.7
2003-03-27 08:10:09 51°17.327 2°48.435 318.3 13.3 317 11.9
2003-03-27 08:10:14 51°17.34 2°48.415 318 13.3 317 11.9
2003-03-27 08:10:20 51°17.357 2°48.392 318.5 13.3 317 12
2003-03-27 08:10:24 51°17.367 2°48.375 318.6 13.4 317 12.1
2003-03-27 08:10:29 51°17.381 2°48.355 318.4 13.4 317 12.1
2003-03-27 08:10:34 51°17.394 2°48.335 318.2 13.4 317 12.1
2003-03-27 08:10:38 51°17.405 2°48.319 318.2 13.4 317 12.1
2003-03-27 08:10:44 51°17.422 2°48.295 318.5 13.4 317 12
2003-03-27 08:10:50 51°17.438 2°48.27 318.3 13.4 317 12.1
2003-03-27 08:10:54 51°17.449 2°48.254 318 13.5 317 12
2003-03-27 08:10:59 51°17.463 2°48.234 318.6 13.5 317 12.1
2003-03-27 08:11:05 51°17.479 2°48.21 318.6 13.5 317 12.2
2003-03-27 08:11:09 51°17.49 2°48.194 318.1 13.4 317 12.2
2003-03-27 08:11:14 51°17.503 2°48.172 315.7 13.3 314 12.2
2003-03-27 08:11:18 51°17.514 2°48.155 314.3 13.3 313 12.1
2003-03-27 08:11:24 51°17.529 2°48.129 313 13.3 312 12.2
2003-03-27 08:11:30 51°17.543 2°48.102 312.3 13.3 311 12.2
2003-03-27 08:11:34 51°17.553 2°48.084 311.9 13.3 310 12.2
2003-03-27 08:11:40 51°17.567 2°48.057 311 13.3 309 12.2
2003-03-27 08:11:44 51°17.576 2°48.038 310.5 13.3 309 12.2
2003-03-27 08:11:48 51°17.585 2°48.02 310 13.3 308 12.1
2003-03-27 08:11:54 51°17.598 2°47.992 309.9 13.3 308 12
2003-03-27 08:11:58 51°17.607 2°47.973 309.9 13.3 308 12
2003-03-27 08:12:04 51°17.621 2°47.946 309.9 13.3 308 11.9
2003-03-27 08:12:09 51°17.632 2°47.923 309.8 13.3 308 11.7
2003-03-27 08:12:14 51°17.644 2°47.9 310 13.3 308 11.7
2003-03-27 08:12:18 51°17.653 2°47.882 310.1 13.2 308 11.8
2003-03-27 08:12:24 51°17.667 2°47.854 310 13.2 308 12.2
2003-03-27 08:12:29 51°17.678 2°47.831 309.9 13.2 308 12.5
2003-03-27 08:12:34 51°17.69 2°47.807 309.7 13.3 308 12.7
2003-03-27 08:12:40 51°17.703 2°47.779 309.8 13.3 308 12.8
2003-03-27 08:12:44 51°17.712 2°47.76 310 13.4 308 12.9
2003-03-27 08:12:49 51°17.722 2°47.736 308.4 13.4 307 13.1
2003-03-27 08:12:54 51°17.733 2°47.712 307.2 13.4 305 13.1
2003-03-27 08:13:00 51°17.745 2°47.682 306.5 13.4 304 13.1
2003-03-27 08:13:04 51°17.753 2°47.662 305.1 13.4 303 13
2003-03-27 08:13:09 51°17.764 2°47.638 304.8 13.4 303 12.8
2003-03-27 08:13:14 51°17.773 2°47.612 304.1 13.3 302 13
2003-03-27 08:13:18 51°17.781 2°47.593 303.6 13.3 302 13.2
2003-03-27 08:13:24 51°17.793 2°47.562 303.3 13.3 301 13.2
2003-03-27 08:13:30 51°17.804 2°47.531 301.8 13.3 300 13.6
2003-03-27 08:13:34 51°17.809 2°47.51 298.3 13.3 297 14
2003-03-27 08:13:40 51°17.819 2°47.477 296.4 13.3 294 14
2003-03-27 08:13:44 51°17.824 2°47.456 294.6 13.2 293 14
2003-03-27 08:13:49 51°17.83 2°47.428 292 13.2 290 13
2003-03-27 08:13:54 51°17.836 2°47.4 290.2 13.2 288 13.8
2003-03-27 08:13:58 51°17.84 2°47.378 288.6 13.2 287 13.9
2003-03-27 08:14:04 51°17.845 2°47.345 287 13.1 286 13.7
2003-03-27 08:14:09 51°17.849 2°47.316 285.9 13 283 13.7
2003-03-27 08:14:14 51°17.853 2°47.288 284.4 13 282 13.7
2003-03-27 08:14:20 51°17.856 2°47.254 282.7 13 280 13.8
2003-03-27 08:14:24 51°17.859 2°47.231 282.3 13 280 13.6
2003-03-27 08:14:28 51°17.861 2°47.209 280.6 12.9 278 13.3
2003-03-27 08:14:34 51°17.865 2°47.175 280.2 12.9 278 13.3
2003-03-27 08:14:38 51°17.866 2°47.151 279.4 12.9 277 13.6
2003-03-27 08:14:44 51°17.869 2°47.117 279.4 12.9 277 14
2003-03-27 08:14:50 51°17.871 2°47.084 279.1 12.9 277 14.5
2003-03-27 08:14:54 51°17.872 2°47.062 278.9 12.9 277 14.5
2003-03-27 08:14:58 51°17.874 2°47.039 279.4 13 278 14.6
2003-03-27 08:15:04 51°17.877 2°47.004 279.2 13 277 14.8
2003-03-27 08:15:10 51°17.879 2°46.97 278.6 13 277 14.9
2003-03-27 08:15:14 51°17.881 2°46.947 279 13 277 15.2
2003-03-27 08:15:18 51°17.883 2°46.924 279.7 13 278 15.4
2003-03-27 08:15:24 51°17.887 2°46.89 280.6 13 279 16
2003-03-27 08:15:30 51°17.891 2°46.856 281 13 279 16.3
2003-03-27 08:15:34 51°17.893 2°46.834 281.3 13.1 280 16.4
2003-03-27 08:15:39 51°17.897 2°46.807 281.6 13 280 16.5
2003-03-27 08:15:44 51°17.9 2°46.779 281.6 13 280 16.7
2003-03-27 08:15:48 51°17.903 2°46.756 281.5 13.1 280 16.8
2003-03-27 08:15:54 51°17.907 2°46.721 281.8 13.1 281 16.9
2003-03-27 08:15:58 51°17.909 2°46.697 281.8 13 280 17.2
2003-03-27 08:16:04 51°17.913 2°46.662 282.1 13 281 17.5
2003-03-27 08:16:09 51°17.917 2°46.633 281.7 13 281 17.7
2003-03-27 08:16:14 51°17.92 2°46.606 281.6 13 280 17.8
2003-03-27 08:16:20 51°17.924 2°46.571 281.5 13.1 280 18.1
2003-03-27 08:16:24 51°17.927 2°46.549 281.8 13.1 281 18.4
2003-03-27 08:16:29 51°17.93 2°46.521 282.3 13.1 281 18.7
2003-03-27 08:16:34 51°17.934 2°46.493 282 13.1 281 19
2003-03-27 08:16:38 51°17.936 2°46.47 281.7 13.1 280 19.2
2003-03-27 08:16:44 51°17.94 2°46.436 281.9 13.1 280 19.4
2003-03-27 08:16:50 51°17.944 2°46.401 282.2 13.1 281 19.5
2003-03-27 08:16:54 51°17.947 2°46.378 281.8 13.2 280 19.7
2003-03-27 08:16:59 51°17.95 2°46.349 281.7 13.2 280 19.5
2003-03-27 08:17:04 51°17.953 2°46.321 282.1 13.2 281 18.9
2003-03-27 08:17:09 51°17.957 2°46.292 282.2 13.2 280 19
2003-03-27 08:17:14 51°17.96 2°46.263 282.8 13.2 281 18.9
2003-03-27 08:17:18 51°17.963 2°46.241 282.7 13.2 281 18.9
2003-03-27 08:17:25 51°17.968 2°46.2 282.8 13.2 281 19
2003-03-27 08:17:30 51°17.971 2°46.172 282.4 13.2 281 19.1
2003-03-27 08:17:34 51°17.974 2°46.149 282.2 13.2 281 19
2003-03-27 08:17:39 51°17.978 2°46.121 282.1 13.2 281 18.9
2003-03-27 08:17:44 51°17.981 2°46.092 282.3 13.1 281 18.7
2003-03-27 08:17:49 51°17.985 2°46.063 282.7 13.1 281 18.8
2003-03-27 08:17:54 51°17.988 2°46.034 282.4 13.1 281 18.7
2003-03-27 08:18:00 51°17.992 2°46 282.6 13.2 281 17.1
2003-03-27 08:18:05 51°17.995 2°45.971 283 13.2 281 18.7
2003-03-27 08:18:09 51°17.997 2°45.948 282.7 13.1 281 19.6
2003-03-27 08:18:14 51°18.001 2°45.92 282.5 13.1 281 20.1
2003-03-27 08:18:18 51°18.003 2°45.897 282.2 13.1 281 20.4
2003-03-27 08:18:24 51°18.008 2°45.863 282.2 13.2 281 20.6
2003-03-27 08:18:30 51°18.013 2°45.828 282.7 13.2 281 20.7
2003-03-27 08:18:34 51°18.016 2°45.805 282.4 13.2 281 20.8
2003-03-27 08:18:40 51°18.02 2°45.77 282.3 13.2 281 20.7
2003-03-27 08:18:44 51°18.024 2°45.747 282.9 13.2 281 20.8
2003-03-27 08:18:50 51°18.028 2°45.712 282.6 13.2 281 20.8
2003-03-27 08:18:54 51°18.031 2°45.69 282.8 12.8 281 20.6
2003-03-27 08:18:58 51°18.034 2°45.67 283 12.3 282 20.5
2003-03-27 08:19:04 51°18.039 2°45.641 283.2 11.8 282 20.1
2003-03-27 08:19:09 51°18.042 2°45.617 283.1 11.3 282 20.6
2003-03-27 08:19:14 51°18.045 2°45.594 282.3 11 282 20.9
2003-03-27 08:19:20 51°18.047 2°45.566 280.3 10.6 280 21.2
2003-03-27 08:19:24 51°18.048 2°45.547 277.9 10.4 278 21.2
2003-03-27 08:19:29 51°18.049 2°45.525 275.7 10.2 276 21.5
2003-03-27 08:19:34 51°18.049 2°45.504 273.5 10 274 21.5
2003-03-27 08:19:38 51°18.049 2°45.487 271.8 9.8 273 21.5
2003-03-27 08:19:44 51°18.049 2°45.461 269.7 9.6 270 21.5
2003-03-27 08:19:49 51°18.048 2°45.44 268.1 9.6 269 21.6
2003-03-27 08:19:54 51°18.047 2°45.419 266.3 9.4 267 21.5
2003-03-27 08:19:58 51°18.047 2°45.402 264.9 9.4 266 21.7
2003-03-27 08:20:04 51°18.045 2°45.378 262.8 9.3 264 21.6
2003-03-27 08:20:09 51°18.043 2°45.358 261.5 9.2 262 21.6
2003-03-27 08:20:14 51°18.042 2°45.339 261.8 9.2 262 21.6
2003-03-27 08:20:19 51°18.04 2°45.318 263.8 9.2 263 21.8
2003-03-27 08:20:24 51°18.04 2°45.298 269.1 9.2 266 21.8
2003-03-27 08:20:28 51°18.04 2°45.282 274.2 9.1 270 21.7
2003-03-27 08:20:34 51°18.042 2°45.26 279 8.8 276 21.8
2003-03-27 08:20:38 51°18.044 2°45.247 283.4 8.4 280 21.9
2003-03-27 08:20:44 51°18.048 2°45.228 288.4 7.7 286 22.1
2003-03-27 08:20:49 51°18.052 2°45.215 293.9 7.3 291 22
2003-03-27 08:20:54 51°18.056 2°45.203 299.5 6.7 297 22.2
2003-03-27 08:20:58 51°18.06 2°45.193 304.4 6.4 302 22.2
2003-03-27 08:21:04 51°18.066 2°45.181 308.9 5.9 308 22.3
2003-03-27 08:21:09 51°18.072 2°45.173 313.5 5.7 312 22.4
2003-03-27 08:21:14 51°18.078 2°45.165 317.9 5.4 317 22.4
2003-03-27 08:21:18 51°18.083 2°45.16 321.9 5.2 321 22.4
2003-03-27 08:21:24 51°18.089 2°45.153 325.8 5 325 22.4
2003-03-27 08:21:28 51°18.094 2°45.149 329.2 4.7 330 22.4
2003-03-27 08:21:34 51°18.1 2°45.144 331.5 4.5 332 22.5
2003-03-27 08:21:39 51°18.106 2°45.141 333.8 4.4 334 22.4
2003-03-27 08:21:44 51°18.111 2°45.137 336 4.2 337 22.5
2003-03-27 08:21:49 51°18.116 2°45.134 337.1 4 339 22.6
2003-03-27 08:21:54 51°18.121 2°45.131 338.7 3.9 340 22.5
2003-03-27 08:21:58 51°18.125 2°45.129 339.6 3.8 342 22.6
2003-03-27 08:22:04 51°18.131 2°45.126 340.6 3.6 343 22.6
2003-03-27 08:22:09 51°18.136 2°45.124 341.3 3.5 343 22.5
2003-03-27 08:22:14 51°18.14 2°45.123 342.2 3.3 345 22.6
2003-03-27 08:22:18 51°18.143 2°45.122 342.9 3.1 347 22.6
2003-03-27 08:22:24 51°18.147 2°45.12 343.9 2.8 348 22.6
2003-03-27 08:22:29 51°18.15 2°45.119 345.9 2.5 349 22.5
2003-03-27 08:22:34 51°18.153 2°45.119 348 2.2 351 22.7
2003-03-27 08:22:38 51°18.155 2°45.119 350.7 1.9 352 22.5
2003-03-27 08:22:44 51°18.158 2°45.117 353 2.1 343 22.5
2003-03-27 08:22:48 51°18.159 2°45.117 354.5 1.7 345 22.6
2003-03-27 08:22:54 51°18.161 2°45.118 355.3 1.2 355 22.7
2003-03-27 08:22:58 51°18.162 2°45.118 355.7 1.2 355 22.7
2003-03-27 08:23:04 51°18.164 2°45.119 355.8 1.3 353 22.5
2003-03-27 08:23:08 51°18.165 2°45.119 355.8 1.3 355 22.5
2003-03-27 08:23:14 51°18.167 2°45.119 356.1 1.3 356 22.6
2003-03-27 08:23:18 51°18.168 2°45.119 356.1 1.3 356 22.7
2003-03-27 08:23:24 51°18.17 2°45.119 355.9 1.2 358 22.8
2003-03-27 08:23:29 51°18.171 2°45.118 355.6 1.2 359 22.7
2003-03-27 08:23:34 51°18.172 2°45.118 355.3 1.2 359 22.6
2003-03-27 08:23:38 51°18.173 2°45.119 355 1.2 1 22.7
2003-03-27 08:23:44 51°18.175 2°45.119 354.5 1.1 1 22.8
2003-03-27 08:23:48 51°18.176 2°45.119 354.2 1.1 359 22.7
2003-03-27 08:23:54 51°18.178 2°45.119 353.9 1.1 358 22.7
2003-03-27 08:23:58 51°18.179 2°45.119 353.6 1.1 358 22.7
2003-03-27 08:24:04 51°18.181 2°45.119 353.2 1.1 359 22.8
2003-03-27 08:24:08 51°18.182 2°45.119 352.9 1.1 358 22.6
2003-03-27 08:24:14 51°18.184 2°45.12 352.7 1.1 359 22.6
2003-03-27 08:24:18 51°18.185 2°45.12 352.5 1.1 359 22.7
2003-03-27 08:24:24 51°18.186 2°45.12 352.1 1.1 357 22.8
2003-03-27 08:24:29 51°18.188 2°45.12 351.8 1.1 356 22.7
2003-03-27 08:24:34 51°18.189 2°45.12 351.5 1.1 358 22.7
2003-03-27 08:24:38 51°18.189 2°45.12 351.1 1 358 22.7
2003-03-27 08:24:44 51°18.191 2°45.12 350.8 1.1 356 22.7
2003-03-27 08:24:49 51°18.192 2°45.12 350.5 1.1 356 22.6
2003-03-27 08:24:54 51°18.193 2°45.121 350.1 1 357 22.7
2003-03-27 08:24:58 51°18.194 2°45.121 349.6 0.9 358 22.7
2003-03-27 08:25:04 51°18.196 2°45.121 349.1 1 358 22.7
2003-03-27 08:25:08 51°18.197 2°45.12 348.9 1 357 22.8
2003-03-27 08:25:14 51°18.198 2°45.12 348.7 1 356 22.7
2003-03-27 08:25:19 51°18.2 2°45.12 348.6 1 355 22.7
2003-03-27 08:25:24 51°18.201 2°45.12 348.3 1 355 22.7
2003-03-27 08:25:29 51°18.203 2°45.12 348.1 1.1 355 22.8
2003-03-27 08:25:34 51°18.204 2°45.12 347.7 1.1 354 22.8
2003-03-27 08:25:38 51°18.205 2°45.119 347.4 1.1 353 22.9
2003-03-27 08:25:44 51°18.207 2°45.119 346.9 1.2 353 22.9
2003-03-27 08:25:48 51°18.208 2°45.119 346.7 1.2 353 23
2003-03-27 08:25:54 51°18.21 2°45.118 346.5 1.2 353 22.8
2003-03-27 08:25:58 51°18.212 2°45.118 346.5 1.2 352 22.8
2003-03-27 08:26:04 51°18.214 2°45.117 346.5 1.3 353 22.7
2003-03-27 08:26:09 51°18.216 2°45.117 346.6 1.3 353 22.8
2003-03-27 08:26:14 51°18.218 2°45.117 346.8 1.4 353 22.7
2003-03-27 08:26:18 51°18.22 2°45.117 347 1.4 353 22.6
2003-03-27 08:26:24 51°18.223 2°45.117 347.4 1.5 353 22.8
2003-03-27 08:26:28 51°18.224 2°45.117 347.8 1.5 353 22.6
2003-03-27 08:26:34 51°18.226 2°45.116 348.3 1.5 354 22.7
2003-03-27 08:26:38 51°18.228 2°45.116 348.6 1.5 355 22.8
2003-03-27 08:26:44 51°18.231 2°45.115 348.9 1.6 355 22.7
2003-03-27 08:26:49 51°18.233 2°45.114 349.5 1.7 354 22.7
2003-03-27 08:26:54 51°18.235 2°45.114 350 1.8 355 22.8
2003-03-27 08:26:58 51°18.237 2°45.114 350.7 1.8 354 22.6
2003-03-27 08:27:04 51°18.24 2°45.114 351.3 1.9 354 22.8
2003-03-27 08:27:09 51°18.243 2°45.114 352 1.9 355 22.7
2003-03-27 08:27:14 51°18.245 2°45.113 352.7 1.9 355 22.7
2003-03-27 08:27:18 51°18.248 2°45.112 353.2 1.9 355 22.7
2003-03-27 08:27:24 51°18.251 2°45.112 353.8 2 356 22.7
2003-03-27 08:27:29 51°18.253 2°45.112 354.4 2 356 22.6
2003-03-27 08:27:34 51°18.256 2°45.111 355.1 2 357 22.7
2003-03-27 08:27:38 51°18.259 2°45.11 355.8 2.1 358 22.6
2003-03-27 08:27:44 51°18.263 2°45.11 356.3 2.1 358 22.7
2003-03-27 08:27:49 51°18.266 2°45.11 356.7 2.1 358 22.8
2003-03-27 08:27:54 51°18.269 2°45.11 357 2.2 358 22.7
2003-03-27 08:27:59 51°18.272 2°45.109 357.3 2.2 358 22.7
2003-03-27 08:28:04 51°18.276 2°45.108 357.4 2.2 359 22.8
2003-03-27 08:28:09 51°18.278 2°45.108 357.8 2.3 358 22.8
2003-03-27 08:28:14 51°18.281 2°45.108 357.9 2.3 359 22.8
2003-03-27 08:28:19 51°18.284 2°45.109 358.2 2.3 359 22.7
2003-03-27 08:28:24 51°18.287 2°45.109 358.4 2.2 1 22.6
2003-03-27 08:28:29 51°18.29 2°45.109 358.6 2.3   22.6
2003-03-27 08:28:34 51°18.293 2°45.11 358.6 2.4 359 22.6
2003-03-27 08:28:38 51°18.296 2°45.11 358.6 2.4 358 22.4
2003-03-27 08:28:44 51°18.3 2°45.11 358.6 2.4 359 22.5
2003-03-27 08:28:48 51°18.303 2°45.11 358.7 2.4 359 22.5
2003-03-27 08:28:54 51°18.307 2°45.111 358.8 2.4 359 22.5
2003-03-27 08:28:58 51°18.31 2°45.111 359 2.4 359 22.5
2003-03-27 08:29:04 51°18.314 2°45.11 358.8 2.4 359 22.3
2003-03-27 08:29:09 51°18.318 2°45.11 358.8 2.4 359 22
2003-03-27 08:29:14 51°18.321 2°45.11 359 2.5   21.5
2003-03-27 08:29:18 51°18.324 2°45.11 359.1 2.5   21.7
2003-03-27 08:29:24 51°18.329 2°45.111 359.2 2.5 1 22
2003-03-27 08:29:28 51°18.331 2°45.111 359.4 2.6   22
2003-03-27 08:29:34 51°18.336 2°45.111 359.9 2.6 1 22.2
2003-03-27 08:29:38 51°18.338 2°45.111 0.2 2.7 1 22.1
2003-03-27 08:29:44 51°18.342 2°45.111 0.5 2.7 1 22.2
2003-03-27 08:29:48 51°18.345 2°45.111 0.7 2.7 1 22.2
2003-03-27 08:29:54 51°18.349 2°45.112 1.2 2.7 2 22.4
2003-03-27 08:29:59 51°18.353 2°45.112 1.8 2.7 2 22.5
2003-03-27 08:30:04 51°18.356 2°45.112 2.3 2.8 3 22.5
2003-03-27 08:30:09 51°18.36 2°45.112 2.9 2.9 3 22.6
2003-03-27 08:30:14 51°18.365 2°45.112 3.6 2.9 3 22.5
2003-03-27 08:30:18 51°18.368 2°45.113 4.3 2.9 4 22.5
2003-03-27 08:30:24 51°18.373 2°45.113 5.1 3 4 22.4
2003-03-27 08:30:29 51°18.377 2°45.114 5.9 3 4 22.5
2003-03-27 08:30:34 51°18.382 2°45.114 7 3.1 5 22.4
2003-03-27 08:30:38 51°18.385 2°45.115 7.9 3.1 7 21.8
2003-03-27 08:30:44 51°18.39 2°45.116 9.3 3.1 8 21.8
2003-03-27 08:30:49 51°18.395 2°45.117 10.8 3.1 9 22
2003-03-27 08:30:54 51°18.399 2°45.119 12.1 3.1 9 21.8
2003-03-27 08:30:59 51°18.404 2°45.12 13.5 3.2 10 21.9
2003-03-27 08:31:04 51°18.409 2°45.121 15 3.2 11 22.2
2003-03-27 08:31:09 51°18.413 2°45.123 16.6 3.2 12 22.3
2003-03-27 08:31:14 51°18.417 2°45.125 18.4 3.3 15 21.8
2003-03-27 08:31:19 51°18.421 2°45.127 20.1 3.3 16 21.2
2003-03-27 08:31:24 51°18.425 2°45.129 21.9 3.3 18 21.8
2003-03-27 08:31:29 51°18.429 2°45.132 23.8 3.3 19 21.8
2003-03-27 08:31:34 51°18.433 2°45.134 25.5 3.3 20 22.1
2003-03-27 08:31:38 51°18.436 2°45.135 27.2 3.3 21 22.3
2003-03-27 08:31:44 51°18.441 2°45.139 28.7 3.3 22 22.3
2003-03-27 08:31:48 51°18.445 2°45.141 30.1 3.3 22 22.5
2003-03-27 08:31:54 51°18.45 2°45.146 31.5 3.3 25 22.6
2003-03-27 08:31:58 51°18.454 2°45.15 32.9 3.3 26 22.6
2003-03-27 08:32:04 51°18.459 2°45.154 34.3 3.3 27 22.4
2003-03-27 08:32:09 51°18.463 2°45.158 35.7 3.3 28 21.4
2003-03-27 08:32:14 51°18.467 2°45.162 36.9 3.3 29 21.3
2003-03-27 08:32:18 51°18.469 2°45.164 37.6 3.3 29 21.7
2003-03-27 08:32:24 51°18.474 2°45.169 38.2 3.2 30 21.4
2003-03-27 08:32:28 51°18.476 2°45.172 38.6 3.2 32 22
2003-03-27 08:32:34 51°18.48 2°45.176 39.1 3.2 33 22
2003-03-27 08:32:38 51°18.483 2°45.18 39.6 3.2 34 22
2003-03-27 08:32:44 51°18.487 2°45.184 39.9 3.3 34 22
2003-03-27 08:32:48 51°18.49 2°45.187 40.1 3.3 34 22.2
2003-03-27 08:32:54 51°18.495 2°45.192 40.2 3.3 34 21.7
2003-03-27 08:32:59 51°18.499 2°45.196 40.4 3.4 34 21.9
2003-03-27 08:33:04 51°18.503 2°45.2 40.5 3.4 34 22.3
2003-03-27 08:33:09 51°18.507 2°45.204 40.6 3.4 34 21.8
2003-03-27 08:33:14 51°18.511 2°45.208 40.6 3.4 35 21.7
2003-03-27 08:33:18 51°18.514 2°45.212 40.6 3.4 36 22
2003-03-27 08:33:24 51°18.519 2°45.217 40.8 3.4 35 22.2
2003-03-27 08:33:29 51°18.522 2°45.221 40.9 3.4 36 22.2
2003-03-27 08:33:34 51°18.526 2°45.225 41.2 3.3 36 22.5
2003-03-27 08:33:38 51°18.529 2°45.228 41.3 3.3 36 22.3
2003-03-27 08:33:44 51°18.534 2°45.233 41.4 3.3 36 21.1
2003-03-27 08:33:49 51°18.537 2°45.238 41.6 3.3 37 21.3
2003-03-27 08:33:54 51°18.541 2°45.242 41.7 3.3 36 21.8
2003-03-27 08:33:59 51°18.545 2°45.247 41.7 3.3 36 22
2003-03-27 08:34:04 51°18.549 2°45.252 41.9 3.3 36 22.3
2003-03-27 08:34:09 51°18.552 2°45.256 42 3.2 37 22.3
2003-03-27 08:34:14 51°18.555 2°45.261 42.2 3.2 37 22.5
2003-03-27 08:34:19 51°18.558 2°45.265 42.3 3.2 37 22.6
2003-03-27 08:34:24 51°18.561 2°45.269 42.4 3.2 38 22.4
2003-03-27 08:34:29 51°18.565 2°45.273 42.6 3.1 38 21.5
2003-03-27 08:34:34 51°18.568 2°45.278 42.7 3.1 39 21.3
2003-03-27 08:34:38 51°18.57 2°45.282 42.7 3.1 40 21.6
2003-03-27 08:34:44 51°18.574 2°45.287 42.8 3.1 41 22
2003-03-27 08:34:48 51°18.577 2°45.29 42.8 3.1 40 22.2
2003-03-27 08:34:54 51°18.582 2°45.294 42.8 3.1 38 22.2
2003-03-27 08:34:58 51°18.584 2°45.297 42.8 3.1 37 22
2003-03-27 08:35:04 51°18.589 2°45.301 42.8 3 37 21.7
2003-03-27 08:35:09 51°18.592 2°45.305 42.6 3 37 21.6
2003-03-27 08:35:14 51°18.596 2°45.309 42.3 3 37 22
2003-03-27 08:35:19 51°18.6 2°45.313 42.1 3 37 22.1
2003-03-27 08:35:24 51°18.603 2°45.317 41.8 3 37 22.2
2003-03-27 08:35:28 51°18.604 2°45.321 41.5 2.9 38 22.4
2003-03-27 08:35:34 51°18.608 2°45.326 41.3 2.9 37 22.6
2003-03-27 08:35:38 51°18.61 2°45.329 41 3 37 22.5
2003-03-27 08:35:44 51°18.614 2°45.334 40.6 2.9 36 22.6
2003-03-27 08:35:49 51°18.618 2°45.337 40.4 2.9 36 22.6
2003-03-27 08:35:54 51°18.621 2°45.341 40.1 2.9 35 22.4
2003-03-27 08:35:58 51°18.624 2°45.344 39.9 2.9 35 22
2003-03-27 08:36:04 51°18.628 2°45.349 39.7 2.9 35 20.5
2003-03-27 08:36:09 51°18.631 2°45.354 39.4 2.9 35 21.2
2003-03-27 08:36:14 51°18.635 2°45.357 39.1 2.9 34 21.4
2003-03-27 08:36:18 51°18.638 2°45.36 38.8 3 34 21.9
2003-03-27 08:36:24 51°18.641 2°45.365 38.6 3 35 21.9
2003-03-27 08:36:29 51°18.645 2°45.368 38.4 3 35 22.2
2003-03-27 08:36:34 51°18.648 2°45.372 37.9 3 34 22.5
2003-03-27 08:36:38 51°18.651 2°45.375 37.8 3 34 22.5
2003-03-27 08:36:44 51°18.655 2°45.379 37.6 3 33 22.5
2003-03-27 08:36:49 51°18.658 2°45.383 37.3 3 33 22.5
2003-03-27 08:36:54 51°18.662 2°45.386 36.9 3 33 22.8
2003-03-27 08:36:59 51°18.665 2°45.39 36.8 3 33 22.8
2003-03-27 08:37:04 51°18.669 2°45.393 36.7 3.1 32 22.7
2003-03-27 08:37:09 51°18.672 2°45.396 36.6 3.1 32 22.8
2003-03-27 08:37:14 51°18.676 2°45.4 36.6 3.1 32 23.1
2003-03-27 08:37:18 51°18.678 2°45.403 36.7 3.1 33 23
2003-03-27 08:37:24 51°18.682 2°45.408 36.9 3 32 22.6
2003-03-27 08:37:29 51°18.686 2°45.411 37.1 3 33 21.9
2003-03-27 08:37:34 51°18.689 2°45.415 37.4 3.1 32 21.8
2003-03-27 08:37:38 51°18.692 2°45.418 37.7 3.1 32 22.2
2003-03-27 08:37:44 51°18.697 2°45.422 38 3.1 32 22.2
2003-03-27 08:37:49 51°18.7 2°45.426 38.4 3.1 33 22.7
2003-03-27 08:37:54 51°18.704 2°45.43 38.8 3.1 34 22.8
2003-03-27 08:37:58 51°18.707 2°45.434 39.3 3.1 35 22.9
2003-03-27 08:38:04 51°18.711 2°45.439 39.8 3.1 35 22.9
2003-03-27 08:38:09 51°18.715 2°45.442 40.4 3.2 35 22.5
2003-03-27 08:38:14 51°18.719 2°45.446 40.7 3.2 33 21.4
2003-03-27 08:38:18 51°18.722 2°45.449 41.3 3.2 33 21.6
2003-03-27 08:38:24 51°18.726 2°45.454 42 3.1 36 21.8
2003-03-27 08:38:29 51°18.73 2°45.458 42.6 3.1 36 21.9
2003-03-27 08:38:34 51°18.733 2°45.462 43 3.1 38 22.2
2003-03-27 08:38:38 51°18.736 2°45.465 43.6 3.2 37 22.5
2003-03-27 08:38:45 51°18.74 2°45.471 44.1 3.2 37 22.5
2003-03-27 08:38:49 51°18.743 2°45.475 44.6 3.2 37 22.6
2003-03-27 08:38:54 51°18.746 2°45.48 45.2 3.2 39 22.7
2003-03-27 08:38:58 51°18.749 2°45.483 46 3.2 40 22.9
2003-03-27 08:39:05 51°18.754 2°45.49 46.6 3.2 40 22.9
2003-03-27 08:39:09 51°18.756 2°45.494 47.1 3.2 40 23.1
2003-03-27 08:39:14 51°18.759 2°45.499 47.7 3.2 41 23.1
2003-03-27 08:39:18 51°18.762 2°45.503 48.3 3.2 41 23.1
2003-03-27 08:39:25 51°18.767 2°45.509 48.7 3.2 42 23
2003-03-27 08:39:29 51°18.769 2°45.513 49.2 3.2 42 22.7
2003-03-27 08:39:33 51°18.772 2°45.516 49.6 3.2 43 21.2
2003-03-27 08:39:38 51°18.776 2°45.522 50.1 3.2 43 21.7
2003-03-27 08:39:45 51°18.78 2°45.528 50.7 3.2 43 21.9
2003-03-27 08:39:49 51°18.783 2°45.532 51.1 3.2 43 22.2
2003-03-27 08:39:55 51°18.787 2°45.537 51.5 3.2 44 22.2
2003-03-27 08:39:58 51°18.789 2°45.54 52.1 3.2 44 22.1
2003-03-27 08:40:05 51°18.793 2°45.548 52.4 3.2 44 22
2003-03-27 08:40:09 51°18.796 2°45.552 53 3.2 45 21.4
2003-03-27 08:40:14 51°18.799 2°45.557 53.7 3.2 46 21.5
2003-03-27 08:40:18 51°18.801 2°45.561 54.5 3.2 46 21.8
2003-03-27 08:40:25 51°18.805 2°45.568 55.1 3.2 47 22
2003-03-27 08:40:29 51°18.808 2°45.572 55.6 3.1 47 22.1
2003-03-27 08:40:34 51°18.81 2°45.578 56.1 3.1 48 22.1
2003-03-27 08:40:38 51°18.812 2°45.582 57 3.1 49 22.3
2003-03-27 08:40:45 51°18.816 2°45.588 57.5 3.1 49 22.4
2003-03-27 08:40:49 51°18.819 2°45.592 58 3.1 49 22.6
2003-03-27 08:40:54 51°18.822 2°45.597 58.7 3.1 50 22.6
2003-03-27 08:40:59 51°18.825 2°45.602 59.3 3 51 22.6
2003-03-27 08:41:05 51°18.828 2°45.609 59.9 3.1 52 22.6
2003-03-27 08:41:09 51°18.83 2°45.613 60.3 3 53 22.7
2003-03-27 08:41:14 51°18.833 2°45.618 60.9 3 53 22.8
2003-03-27 08:41:19 51°18.835 2°45.624 61.2 3 54 22.8
2003-03-27 08:41:25 51°18.838 2°45.63 61.4 3 53 22.2
2003-03-27 08:41:29 51°18.84 2°45.633 61.7 3 54 21.4
2003-03-27 08:41:35 51°18.843 2°45.639 61.9 3 54 21.2
2003-03-27 08:41:39 51°18.846 2°45.643 62.2 3 55 21.9
2003-03-27 08:41:45 51°18.849 2°45.648 62.3 3 55 21.8
2003-03-27 08:41:49 51°18.85 2°45.652 62.5 3 56 22.2
2003-03-27 08:41:55 51°18.853 2°45.659 62.7 3 56 22.2
2003-03-27 08:41:59 51°18.855 2°45.663 62.9 3 56 22.1
2003-03-27 08:42:05 51°18.858 2°45.671 63.1 3 56 22.2
2003-03-27 08:42:09 51°18.859 2°45.675 63.1 3 57 22.3
2003-03-27 08:42:15 51°18.862 2°45.682 63.3 3 58 22.3
2003-03-27 08:42:19 51°18.864 2°45.687 63.3 3 58 22.7
2003-03-27 08:42:25 51°18.867 2°45.694 63.5 3 58 22.9
2003-03-27 08:42:29 51°18.868 2°45.698 63.6 3 58 22.9
2003-03-27 08:42:33 51°18.87 2°45.703 63.7 3.1 57 22.9
2003-03-27 08:42:38 51°18.873 2°45.708 63.8 3 57 22.8
2003-03-27 08:42:45 51°18.876 2°45.716 63.8 3.1 57 22.4
2003-03-27 08:42:49 51°18.878 2°45.72 63.6 3.1 58 21.4
2003-03-27 08:42:55 51°18.881 2°45.727 63.5 3.1 58 22
2003-03-27 08:42:59 51°18.882 2°45.732 63.1 3.1 57 22.3
2003-03-27 08:43:05 51°18.885 2°45.739 62.8 3.1 58 22.5
2003-03-27 08:43:09 51°18.887 2°45.744 62.4 3.1 58 21.7
2003-03-27 08:43:14 51°18.89 2°45.749 61.8 3.1 56 21.6
2003-03-27 08:43:19 51°18.892 2°45.755 61.3 3.1 56 21.7
2003-03-27 08:43:25 51°18.895 2°45.761 60.9 3.1 55 22.3
2003-03-27 08:43:29 51°18.898 2°45.766 60.2 3.1 55 22.3
2003-03-27 08:43:35 51°18.9 2°45.773 59.8 3.1 56 22.5
2003-03-27 08:43:39 51°18.903 2°45.777 59.3 3.1 55 22.6
2003-03-27 08:43:45 51°18.906 2°45.784 58.5 3.2 54 22.7
2003-03-27 08:43:49 51°18.908 2°45.789 57.9 3.2 53 22.2
2003-03-27 08:43:55 51°18.912 2°45.796 57 3.2 52 21.6
2003-03-27 08:43:59 51°18.914 2°45.801 56.4 3.2 52 21.9
2003-03-27 08:44:05 51°18.917 2°45.809 55.8 3.2 52 22.1
2003-03-27 08:44:09 51°18.919 2°45.813 55.1 3.2 51 22.4
2003-03-27 08:44:15 51°18.922 2°45.82 54.4 3.2 50 22.5
2003-03-27 08:44:19 51°18.924 2°45.824 53.8 3.2 50 22.5
2003-03-27 08:44:25 51°18.928 2°45.831 53.3 3.2 49 22.6
2003-03-27 08:44:29 51°18.931 2°45.834 52.7 3.2 49 22.8
2003-03-27 08:44:35 51°18.935 2°45.84 52.1 3.2 47 22.9
2003-03-27 08:44:39 51°18.937 2°45.845 51.4 3.2 47 22.8
2003-03-27 08:44:45 51°18.941 2°45.851 50.9 3.2 46 22.7
2003-03-27 08:44:49 51°18.944 2°45.855 50.7 3.2 46 23
2003-03-27 08:44:55 51°18.947 2°45.861 50.4 3.2 46 22.9
2003-03-27 08:44:59 51°18.95 2°45.865 50.2 3.2 46 22.9
2003-03-27 08:45:05 51°18.954 2°45.871 50 3.3 46 22.9
2003-03-27 08:45:09 51°18.956 2°45.876 49.9 3.3 46 23
2003-03-27 08:45:15 51°18.96 2°45.882 49.4 3.3 45 23.3
2003-03-27 08:45:19 51°18.962 2°45.886 49 3.3 45 23.4
2003-03-27 08:45:25 51°18.966 2°45.892 48.6 3.3 44 23.4
2003-03-27 08:45:29 51°18.969 2°45.895 48.1 3.3 44 23.3
2003-03-27 08:45:35 51°18.972 2°45.901 47.4 3.2 43 23.4
2003-03-27 08:45:39 51°18.975 2°45.905 46.7 3.2 43 23.5
2003-03-27 08:45:45 51°18.98 2°45.91 46 3.2 43 23.3
2003-03-27 08:45:49 51°18.982 2°45.914 45.2 3.2 43 23.3
2003-03-27 08:45:55 51°18.987 2°45.918 44.2 3.1 41 23.1
2003-03-27 08:45:59 51°18.989 2°45.922 43.5 3.1 40 23.3
2003-03-27 08:46:05 51°18.993 2°45.927 42.8 3.1 40 23.5
2003-03-27 08:46:09 51°18.996 2°45.93 41.9 3 39 23.5
2003-03-27 08:46:15 51°19 2°45.935 40.9 3 39 23.3
2003-03-27 08:46:20 51°19.003 2°45.939 40.1 3 38 23.5
2003-03-27 08:46:25 51°19.006 2°45.942 39.5 3 37 23.5
2003-03-27 08:46:29 51°19.009 2°45.945 39.2 3 37 23.2
2003-03-27 08:46:35 51°19.013 2°45.95 38.8 3 38 22.6
2003-03-27 08:46:39 51°19.015 2°45.953 38.6 2.9 38 22.9
2003-03-27 08:46:45 51°19.019 2°45.957 38.4 2.9 38 23.1
2003-03-27 08:46:49 51°19.022 2°45.96 38.4 2.9 37 23.2
2003-03-27 08:46:55 51°19.026 2°45.964 38.4 2.9 36 23.3
2003-03-27 08:46:59 51°19.029 2°45.966 38.4 2.9 35 23.2
2003-03-27 08:47:05 51°19.034 2°45.971 38.4 2.9 35 22.4
2003-03-27 08:47:09 51°19.036 2°45.974 38.4 2.9 35 22.2
2003-03-27 08:47:15 51°19.04 2°45.979 38.4 2.8 35 21.8
2003-03-27 08:47:19 51°19.042 2°45.982 38.5 2.8 34 22.3
2003-03-27 08:47:25 51°19.045 2°45.987 38.5 2.8 35 22.7
2003-03-27 08:47:29 51°19.047 2°45.99 38.5 2.7 35 22.7
2003-03-27 08:47:35 51°19.051 2°45.995 38.5 2.7 36 22.7
2003-03-27 08:47:39 51°19.053 2°45.998 38.6 2.7 35 23
2003-03-27 08:47:45 51°19.056 2°46.004 38.6 2.7 36 22.8
2003-03-27 08:47:49 51°19.057 2°46.008 38.7 2.7 36 22.9
2003-03-27 08:47:55 51°19.06 2°46.013 38.7 2.8 35 23
2003-03-27 08:47:59 51°19.061 2°46.017 38.7 2.8 35 22.8
2003-03-27 08:48:05 51°19.064 2°46.023 38.7 2.9 35 23
2003-03-27 08:48:09 51°19.067 2°46.026 38.6 2.9 35 23.2
2003-03-27 08:48:15 51°19.072 2°46.028 38.5 3 34 23.2
2003-03-27 08:48:19 51°19.075 2°46.032 38.4 3 34 23
2003-03-27 08:48:25 51°19.079 2°46.037 38.2 3 34 23
2003-03-27 08:48:29 51°19.082 2°46.04 37.9 3 33 23.2
2003-03-27 08:48:35 51°19.086 2°46.045 37.7 3 32 23.2
2003-03-27 08:48:39 51°19.089 2°46.048 37.3 3 33 23.4
2003-03-27 08:48:45 51°19.093 2°46.052 37.1 3 33 23.4
2003-03-27 08:48:49 51°19.098 2°46.053 36.9 3 33 23.3
2003-03-27 08:48:55 51°19.102 2°46.056 36.7 3 33 23.4
2003-03-27 08:48:59 51°19.106 2°46.058 36.6 3 33 23.3
2003-03-27 08:49:03 51°19.109 2°46.06 36.3 3 33 23.1
2003-03-27 08:49:09 51°19.113 2°46.064 36.2 3 33 22.4
2003-03-27 08:49:15 51°19.117 2°46.069 36.2 3 33 22.4
2003-03-27 08:49:19 51°19.12 2°46.072 36.1 3 32 22.8
2003-03-27 08:49:25 51°19.125 2°46.075 36 3 32 23
2003-03-27 08:49:30 51°19.128 2°46.078 35.9 3 32 23.1
2003-03-27 08:49:35 51°19.133 2°46.08 35.9 3 31 23.1
2003-03-27 08:49:40 51°19.136 2°46.084 35.9 3 31 23.3
2003-03-27 08:49:45 51°19.14 2°46.088 35.9 3.1 32 23.4
2003-03-27 08:49:50 51°19.143 2°46.091 35.9 3.1 32 23.5
2003-03-27 08:49:55 51°19.147 2°46.094 35.9 3.1 32 23.5
2003-03-27 08:49:59 51°19.15 2°46.096 35.9 3.1 32 23.6